Time;durP1;ratioP1;P1;durP2;ratioP2;P2;SDS_P1;SDS_P2;PMS_P1;PMS_P2;Temp;Humidity;BMP_temperature;BMP_pressure;BME280_temperature;BME280_humidity;BME280_pressure;Samples;Min_cycle;Max_cycle;Signal;HPM_P1;HPM_P2
2022/12/16 00:04:25;;;;;;;;;;;14.50;54.90;;;;;;10171228;28;94459;-65
2022/12/16 00:09:26;;;;;;;;;;;14.50;55.00;;;;;;10173652;28;94595;-65
2022/12/16 00:14:28;;;;;;;;;;;14.50;54.90;;;;;;10169696;28;95715;-65
2022/12/16 00:19:30;;;;;;;;;;;14.50;54.90;;;;;;10171847;28;94468;-65
2022/12/16 00:24:32;;;;;;;;;;;14.40;54.90;;;;;;10172532;28;94596;-65
2022/12/16 00:29:33;;;;;;;;;;;14.40;54.90;;;;;;10171479;28;94546;-65
2022/12/16 00:34:35;;;;;;;;;;;14.50;55.00;;;;;;10171733;28;94659;-65
2022/12/16 00:39:37;;;;;;;;;;;14.40;54.80;;;;;;10171469;28;93452;-65
2022/12/16 00:44:39;;;;;;;;;;;14.40;54.90;;;;;;10171799;28;94793;-65
2022/12/16 00:49:41;;;;;;;;;;;14.40;54.90;;;;;;10171942;28;93732;-65
2022/12/16 00:54:43;;;;;;;;;;;14.40;54.90;;;;;;10171243;28;94462;-65
2022/12/16 00:59:45;;;;;;;;;;;14.40;54.90;;;;;;10170788;28;93665;-65
2022/12/16 01:04:47;;;;;;;;;;;14.40;54.90;;;;;;10167815;28;95891;-65
2022/12/16 01:09:49;;;;;;;;;;;14.40;54.90;;;;;;10170106;28;93477;-65
2022/12/16 01:14:52;;;;;;;;;;;14.40;54.80;;;;;;10170426;28;94519;-65
2022/12/16 01:19:54;;;;;;;;;;;14.40;54.80;;;;;;10152575;28;93470;-65
2022/12/16 01:24:56;;;;;;;;;;;14.40;54.80;;;;;;10170385;28;93711;-65
2022/12/16 01:29:58;;;;;;;;;;;14.30;54.80;;;;;;10169736;28;93438;-65
2022/12/16 01:35:00;;;;;;;;;;;14.30;54.70;;;;;;10169673;28;93014;-65
2022/12/16 01:40:02;;;;;;;;;;;14.30;54.70;;;;;;10172142;28;92392;-64
2022/12/16 01:45:26;;;;;;;;;;;14.40;54.80;;;;;;10169578;28;94837;-65
2022/12/16 01:50:29;;;;;;;;;;;14.30;54.70;;;;;;10169438;28;93689;-65
2022/12/16 01:55:36;;;;;;;;;;;14.30;54.80;;;;;;10148844;28;95966;-65
2022/12/16 02:05:58;;;;;;;;;;;14.30;54.70;;;;;;10384511;23;95012;-61
2022/12/16 02:11:10;;;;;;;;;;;14.30;54.70;;;;;;10207942;28;93573;-61
2022/12/16 02:16:34;;;;;;;;;;;14.30;54.60;;;;;;10208058;28;93271;-61
2022/12/16 02:21:54;;;;;;;;;;;14.30;54.70;;;;;;10207373;28;93620;-61
2022/12/16 02:26:58;;;;;;;;;;;14.30;54.70;;;;;;10207246;28;93463;-61
2022/12/16 02:32:02;;;;;;;;;;;14.30;54.60;;;;;;10209073;28;92732;-61
2022/12/16 02:37:19;;;;;;;;;;;14.30;54.60;;;;;;10207735;28;93147;-61
2022/12/16 02:42:27;;;;;;;;;;;14.30;54.60;;;;;;10208745;28;93696;-61
2022/12/16 02:47:29;;;;;;;;;;;14.30;54.60;;;;;;10204611;28;95629;-61
2022/12/16 02:52:33;;;;;;;;;;;14.30;54.60;;;;;;10207072;28;93479;-61
2022/12/16 02:57:41;;;;;;;;;;;14.30;54.60;;;;;;10207625;28;94425;-61
2022/12/16 03:02:58;;;;;;;;;;;14.30;54.60;;;;;;10205970;28;92900;-61
2022/12/16 03:08:03;;;;;;;;;;;14.30;54.50;;;;;;10205642;28;94455;-61
2022/12/16 03:13:05;;;;;;;;;;;14.30;54.50;;;;;;10205796;28;93383;-61
2022/12/16 03:18:08;;;;;;;;;;;14.30;54.60;;;;;;10206455;28;94466;-61
2022/12/16 03:23:12;;;;;;;;;;;14.30;54.60;;;;;;10206683;28;93720;-61
2022/12/16 03:28:14;;;;;;;;;;;14.30;54.50;;;;;;10207175;28;94448;-61
2022/12/16 03:33:23;;;;;;;;;;;14.20;54.40;;;;;;10210966;28;94448;-61
2022/12/16 03:38:25;;;;;;;;;;;14.20;54.50;;;;;;10211342;28;96854;-61
2022/12/16 03:43:27;;;;;;;;;;;14.20;54.50;;;;;;10213945;28;94689;-61
2022/12/16 03:48:29;;;;;;;;;;;14.20;54.40;;;;;;10228819;28;94855;-61
2022/12/16 03:53:31;;;;;;;;;;;14.30;54.40;;;;;;10213832;28;93474;-61
2022/12/16 03:58:34;;;;;;;;;;;14.20;54.30;;;;;;10214122;28;94395;-61
2022/12/16 04:03:36;;;;;;;;;;;14.30;54.40;;;;;;10212466;28;93669;-61
2022/12/16 04:08:38;;;;;;;;;;;14.30;54.40;;;;;;10213381;28;94342;-61
2022/12/16 04:24:23;;;;;;;;;;;14.30;54.30;;;;;;10213119;28;94547;-61
2022/12/16 04:29:24;;;;;;;;;;;14.20;54.30;;;;;;10209357;28;95852;-61
2022/12/16 04:34:27;;;;;;;;;;;14.30;54.30;;;;;;10213142;28;94469;-61
